Time;durP1;ratioP1;P1;durP2;ratioP2;P2;SDS_P1;SDS_P2;PMS_P1;PMS_P2;Temp;Humidity;BMP_temperature;BMP_pressure;BME280_temperature;BME280_humidity;BME280_pressure;Samples;Min_cycle;Max_cycle;Signal;HPM_P1;HPM_P2
2022/12/11 00:01:15;;;;;;;1.48;0.65;;;6.30;94.20;;;;;;5037294;28;20041;-74
2022/12/11 00:03:41;;;;;;;3.22;1.02;;;6.30;94.30;;;;;;5034832;28;20049;-74
2022/12/11 00:06:09;;;;;;;2.55;0.80;;;6.30;94.40;;;;;;5034762;28;20388;-73
2022/12/11 00:08:35;;;;;;;2.63;1.08;;;6.30;94.50;;;;;;5040594;28;20025;-73
2022/12/11 00:11:02;;;;;;;2.83;1.05;;;6.20;94.40;;;;;;5034294;28;20040;-73
2022/12/11 00:13:29;;;;;;;5.18;1.10;;;6.20;94.50;;;;;;5049828;28;20083;-73
2022/12/11 00:15:58;;;;;;;2.33;1.15;;;6.20;94.00;;;;;;5055136;28;20108;-73
2022/12/11 00:18:24;;;;;;;2.90;0.85;;;6.30;93.80;;;;;;5038934;28;20032;-73
2022/12/11 00:20:50;;;;;;;2.70;1.05;;;6.30;93.90;;;;;;5059287;28;20051;-73
2022/12/11 00:23:16;;;;;;;3.05;1.08;;;6.30;93.80;;;;;;5046495;28;20463;-72
2022/12/11 00:25:43;;;;;;;2.03;0.80;;;6.40;93.70;;;;;;5060629;28;20041;-74
2022/12/11 00:28:10;;;;;;;2.72;1.05;;;6.40;93.30;;;;;;5055407;28;20025;-72
2022/12/11 00:30:46;;;;;;;4.18;1.00;;;6.40;93.50;;;;;;5056288;28;20029;-72
2022/12/11 00:33:15;;;;;;;3.25;0.90;;;6.40;93.40;;;;;;5055233;28;20492;-73
2022/12/11 00:35:46;;;;;;;3.33;1.40;;;6.40;93.30;;;;;;5057239;28;20033;-72
2022/12/11 00:38:18;;;;;;;2.47;1.20;;;6.40;93.10;;;;;;5057444;28;20480;-74
2022/12/11 00:40:44;;;;;;;1.90;0.90;;;6.50;93.00;;;;;;5053337;28;20126;-72
2022/12/11 00:43:10;;;;;;;1.80;0.60;;;6.40;93.30;;;;;;5052822;28;20051;-73
2022/12/11 00:45:45;;;;;;;2.60;1.00;;;6.30;93.40;;;;;;5055412;28;20033;-72
2022/12/11 00:48:12;;;;;;;4.57;1.42;;;6.30;93.60;;;;;;5067945;28;20053;-73
2022/12/11 00:50:38;;;;;;;2.33;0.80;;;6.30;93.30;;;;;;5055558;28;20102;-73
2022/12/11 00:53:05;;;;;;;3.65;1.20;;;6.30;93.40;;;;;;5053227;28;20032;-73
2022/12/11 00:55:36;;;;;;;1.75;0.70;;;6.30;93.50;;;;;;5055765;28;20033;-73
2022/12/11 00:58:02;;;;;;;3.53;1.00;;;6.20;93.70;;;;;;5055089;28;20068;-73
2022/12/11 01:00:28;;;;;;;3.03;0.98;;;6.20;93.60;;;;;;5065771;28;20494;-73
2022/12/11 01:02:53;;;;;;;2.53;1.00;;;6.30;93.50;;;;;;5050224;28;20200;-73
2022/12/11 01:05:20;;;;;;;3.22;1.35;;;6.30;93.50;;;;;;5046634;28;20037;-73
2022/12/11 01:07:47;;;;;;;2.85;1.13;;;6.30;93.50;;;;;;5057862;28;20033;-73
2022/12/11 01:10:22;;;;;;;3.53;1.23;;;6.30;93.60;;;;;;5052463;28;20029;-73
2022/12/11 01:12:52;;;;;;;2.20;0.90;;;6.20;94.00;;;;;;5043448;28;20528;-72
2022/12/11 01:15:19;;;;;;;2.80;0.80;;;6.30;93.70;;;;;;5033119;28;20399;-72
2022/12/11 01:17:45;;;;;;;2.60;0.90;;;6.30;93.60;;;;;;5036420;28;20033;-73
2022/12/11 01:20:11;;;;;;;2.03;0.70;;;6.40;93.80;;;;;;5034873;28;20037;-73
2022/12/11 01:22:38;;;;;;;2.35;0.93;;;6.40;93.30;;;;;;5035329;28;20044;-72
2022/12/11 01:25:05;;;;;;;4.15;1.00;;;6.40;93.50;;;;;;5041240;28;20045;-72
2022/12/11 01:27:30;;;;;;;2.78;1.20;;;6.30;93.90;;;;;;5031748;28;20067;-73
2022/12/11 01:29:56;;;;;;;3.80;1.13;;;6.20;93.90;;;;;;5044393;28;20065;-73
2022/12/11 01:32:22;;;;;;;2.72;1.00;;;6.30;94.00;;;;;;5034406;28;20033;-73
2022/12/11 01:34:48;;;;;;;3.22;1.00;;;6.30;93.70;;;;;;5042617;28;20041;-73
2022/12/11 01:37:14;;;;;;;4.10;1.10;;;6.20;94.10;;;;;;5033269;28;20064;-72
2022/12/11 01:39:40;;;;;;;2.83;0.98;;;6.30;94.00;;;;;;5033768;28;20064;-72
2022/12/11 01:42:09;;;;;;;2.47;0.98;;;6.20;94.00;;;;;;5042709;28;20045;-72
2022/12/11 01:44:34;;;;;;;3.25;1.20;;;6.20;94.30;;;;;;5035047;28;20033;-73
2022/12/11 01:47:00;;;;;;;2.25;1.17;;;6.20;94.30;;;;;;5036769;28;20037;-73
2022/12/11 01:49:28;;;;;;;4.00;0.93;;;6.20;94.40;;;;;;5049266;28;20033;-72
2022/12/11 01:52:15;;;;;;;2.35;0.73;;;6.30;94.40;;;;;;5033508;28;20105;-72
2022/12/11 01:54:42;;;;;;;3.00;1.08;;;6.30;94.30;;;;;;5046031;28;20044;-72
2022/12/11 01:57:09;;;;;;;3.40;0.93;;;6.40;94.20;;;;;;5052172;28;20500;-73
2022/12/11 01:59:38;;;;;;;3.03;0.70;;;6.40;94.20;;;;;;5055090;28;20098;-72
2022/12/11 02:02:14;;;;;;;2.78;0.93;;;6.30;94.50;;;;;;5069518;28;20049;-72
2022/12/11 02:04:42;;;;;;;2.78;1.02;;;6.30;94.60;;;;;;5060682;28;20036;-72
2022/12/11 02:07:09;;;;;;;2.70;0.70;;;6.30;94.60;;;;;;5060009;28;21056;-73
2022/12/11 02:09:37;;;;;;;3.67;1.10;;;6.30;94.60;;;;;;5063985;28;20092;-73
2022/12/11 02:12:03;;;;;;;2.70;1.10;;;6.20;94.70;;;;;;5055048;28;20045;-72
2022/12/11 02:14:38;;;;;;;2.42;0.80;;;6.20;95.00;;;;;;5056936;28;20143;-73
2022/12/11 02:17:24;;;;;;;3.10;1.42;;;6.30;94.60;;;;;;5056650;28;20050;-73
2022/12/11 02:20:02;;;;;;;2.35;0.60;;;6.30;94.80;;;;;;5055614;28;20815;-73
2022/12/11 02:22:54;;;;;;;3.25;0.88;;;6.30;94.70;;;;;;5055825;28;20044;-72
2022/12/11 02:25:29;;;;;;;;;;;6.30;94.50;;;;;;5060348;28;20756;-73
2022/12/11 02:28:32;;;;;;;2.55;1.08;;;6.40;94.40;;;;;;5061579;28;19916;-73
2022/12/11 02:31:21;;;;;;;1.88;1.10;;;6.40;94.40;;;;;;5035519;28;20038;-72
2022/12/11 02:34:07;;;;;;;3.17;1.10;;;6.30;94.60;;;;;;5038319;28;20041;-73
2022/12/11 02:36:38;;;;;;;2.78;1.10;;;6.30;94.60;;;;;;5052729;28;20116;-73
2022/12/11 02:39:06;;;;;;;2.63;0.70;;;6.30;94.70;;;;;;5037148;28;20037;-73
2022/12/11 02:41:33;;;;;;;3.03;1.10;;;6.30;94.60;;;;;;5037362;28;20048;-73
2022/12/11 02:44:01;;;;;;;2.45;0.63;;;6.30;94.60;;;;;;5051090;28;20444;-73
2022/12/11 02:46:29;;;;;;;1.60;0.70;;;6.40;94.50;;;;;;5056715;28;20041;-73
2022/12/11 02:48:56;;;;;;;2.80;0.98;;;6.40;94.30;;;;;;5062029;28;20576;-73
2022/12/11 02:51:28;;;;;;;2.30;0.47;;;6.50;94.10;;;;;;5055411;28;20390;-72
2022/12/11 02:53:57;;;;;;;1.98;0.70;;;6.50;94.10;;;;;;5065093;28;20956;-74
2022/12/11 02:56:39;;;;;;;2.33;1.05;;;6.50;94.10;;;;;;5056220;28;20110;-73
2022/12/11 02:59:14;;;;;;;3.47;1.02;;;6.60;94.30;;;;;;5056586;28;20025;-73
2022/12/11 03:01:40;;;;;;;2.97;1.10;;;6.50;94.50;;;;;;5062391;28;20033;-73
2022/12/11 03:04:07;;;;;;;1.85;0.77;;;6.50;94.50;;;;;;5057323;28;20044;-72
2022/12/11 03:06:48;;;;;;;2.58;0.95;;;6.50;94.80;;;;;;5055352;28;20124;-73
2022/12/11 03:09:13;;;;;;;2.78;1.20;;;6.60;94.90;;;;;;5054619;28;20056;-72
2022/12/11 03:11:39;;;;;;;2.10;0.80;;;6.60;94.90;;;;;;5054290;28;20443;-73
2022/12/11 03:14:07;;;;;;;3.45;1.08;;;6.60;95.10;;;;;;5057004;28;20492;-73
2022/12/11 03:16:40;;;;;;;2.13;0.88;;;6.60;95.50;;;;;;5070763;28;20041;-73
2022/12/11 03:19:31;;;;;;;2.95;1.45;;;6.60;95.30;;;;;;5059446;28;20098;-72
2022/12/11 03:22:28;;;;;;;2.88;1.17;;;6.60;95.30;;;;;;5060993;28;20171;-72
2022/12/11 03:25:06;;;;;;;2.38;0.55;;;6.60;95.40;;;;;;5036888;28;20721;-73
2022/12/11 03:27:45;;;;;;;2.72;1.00;;;6.70;95.50;;;;;;5042971;28;20038;-73
2022/12/11 03:30:15;;;;;;;3.25;0.93;;;6.60;95.60;;;;;;5038061;28;20025;-73
2022/12/11 03:33:00;;;;;;;2.70;1.10;;;6.60;95.50;;;;;;5035359;28;20033;-72
2022/12/11 03:35:55;;;;;;;2.25;0.70;;;6.60;95.40;;;;;;5034757;28;20621;-73
2022/12/11 03:38:30;;;;;;;2.78;0.88;;;6.50;95.50;;;;;;5030248;28;20030;-73
2022/12/11 03:40:59;;;;;;;2.45;1.00;;;6.50;95.60;;;;;;5036685;28;20041;-72
2022/12/11 03:43:27;;;;;;;2.53;1.05;;;6.40;95.70;;;;;;5039709;28;20441;-72
2022/12/11 03:45:54;;;;;;;2.60;1.00;;;6.50;95.70;;;;;;5046511;28;20026;-73
2022/12/11 03:48:22;;;;;;;1.85;0.90;;;6.40;95.70;;;;;;5019587;28;20030;-72
2022/12/11 03:50:48;;;;;;;2.03;0.85;;;6.40;95.90;;;;;;5036527;28;20033;-73
2022/12/11 03:53:15;;;;;;;7.10;0.90;;;6.40;95.90;;;;;;5036061;28;20033;-72
2022/12/11 03:55:42;;;;;;;3.55;1.00;;;6.40;96.00;;;;;;5040301;28;20630;-72
2022/12/11 03:58:08;;;;;;;3.15;0.90;;;6.30;96.00;;;;;;5033427;28;20052;-72
2022/12/11 04:00:34;;;;;;;2.75;1.00;;;6.40;96.10;;;;;;5043991;28;20399;-73
2022/12/11 04:03:12;;;;;;;3.45;1.08;;;6.30;96.20;;;;;;5043155;28;20048;-72
2022/12/11 04:05:42;;;;;;;2.58;0.93;;;6.40;96.50;;;;;;5027181;28;20041;-73
2022/12/11 04:08:08;;;;;;;4.20;1.30;;;6.40;96.50;;;;;;5032254;28;20041;-73
2022/12/11 04:10:34;;;;;;;2.47;1.00;;;6.50;96.60;;;;;;5026671;28;20041;-73
2022/12/11 04:13:00;;;;;;;2.40;0.90;;;6.50;96.70;;;;;;5036012;28;20048;-73
2022/12/11 04:15:26;;;;;;;2.70;1.05;;;6.60;96.80;;;;;;5044303;28;20074;-73
2022/12/11 04:26:09;;;;;;;2.90;1.42;;;6.50;96.80;;;;;;5030978;28;20125;-72
2022/12/11 04:28:35;;;;;;;2.80;1.08;;;6.50;97.00;;;;;;5033186;28;20072;-73
2022/12/11 04:31:02;;;;;;;4.30;1.27;;;6.50;97.10;;;;;;5032635;28;20091;-73
2022/12/11 04:33:28;;;;;;;2.72;1.05;;;6.60;96.80;;;;;;5069320;28;20112;-73
2022/12/11 04:35:57;;;;;;;3.33;1.67;;;6.50;96.90;;;;;;5057284;28;20116;-73
2022/12/11 04:38:23;;;;;;;2.03;0.98;;;6.50;97.20;;;;;;5049887;28;20032;-72
2022/12/11 04:40:55;;;;;;;3.55;1.00;;;6.50;96.90;;;;;;5062365;28;20700;-72
2022/12/11 04:43:21;;;;;;;4.30;1.08;;;6.50;97.10;;;;;;5070098;28;20059;-71
2022/12/11 04:45:47;;;;;;;3.75;0.90;;;6.50;97.10;;;;;;5059345;28;20036;-72
2022/12/11 04:48:13;;;;;;;2.35;0.98;;;6.50;97.10;;;;;;5035972;28;20041;-72
2022/12/11 04:50:38;;;;;;;2.50;0.93;;;6.40;97.20;;;;;;5054538;28;20091;-72
2022/12/11 04:53:04;;;;;;;1.98;0.95;;;6.40;97.30;;;;;;5053060;28;20037;-73
2022/12/11 04:55:30;;;;;;;2.85;1.27;;;6.40;97.20;;;;;;5055888;28;20028;-72
2022/12/11 04:57:55;;;;;;;2.38;1.00;;;6.40;97.00;;;;;;5053813;28;20044;-72
2022/12/11 05:00:22;;;;;;;3.85;1.00;;;6.50;96.60;;;;;;5053507;28;20113;-73
2022/12/11 05:02:47;;;;;;;2.63;0.98;;;6.50;96.60;;;;;;5062957;28;20057;-72
2022/12/11 05:05:13;;;;;;;2.97;0.90;;;6.60;96.60;;;;;;5054557;28;20412;-73
2022/12/11 05:07:40;;;;;;;4.18;1.20;;;6.70;96.90;;;;;;5054699;28;20029;-72
2022/12/11 05:10:07;;;;;;;2.35;0.98;;;6.70;96.80;;;;;;5058305;28;20029;-73
2022/12/11 05:12:34;;;;;;;4.00;1.00;;;6.80;96.50;;;;;;5061449;28;20036;-73
2022/12/11 05:15:00;;;;;;;3.83;0.93;;;6.80;96.70;;;;;;5054554;28;20526;-73
2022/12/11 05:17:26;;;;;;;3.00;1.20;;;6.90;97.00;;;;;;5065769;28;20167;-72
2022/12/11 05:19:52;;;;;;;3.72;1.05;;;7.00;97.40;;;;;;5052364;28;20042;-73
2022/12/11 05:22:19;;;;;;;3.80;1.02;;;7.00;97.80;;;;;;5054384;28;20045;-72
2022/12/11 05:24:45;;;;;;;3.13;1.10;;;7.00;98.20;;;;;;5053827;28;20123;-72
2022/12/11 05:27:11;;;;;;;3.03;1.10;;;7.00;98.50;;;;;;5055332;28;20163;-72
2022/12/11 05:29:38;;;;;;;2.90;1.20;;;7.00;99.00;;;;;;5054715;28;20106;-73
2022/12/11 05:32:04;;;;;;;4.32;1.13;;;7.00;99.20;;;;;;5051390;28;20033;-72
2022/12/11 05:34:30;;;;;;;3.42;1.00;;;7.10;99.50;;;;;;5036556;28;20218;-72
2022/12/11 05:36:57;;;;;;;3.08;0.90;;;7.10;99.60;;;;;;5058936;28;20512;-72
2022/12/11 05:39:23;;;;;;;3.88;1.10;;;7.10;99.90;;;;;;5054317;28;20393;-73
2022/12/11 05:41:48;;;;;;;5.00;1.27;;;7.20;99.90;;;;;;5058663;28;20047;-72
2022/12/11 05:44:14;;;;;;;4.38;1.23;;;7.20;99.90;;;;;;5052621;28;20029;-73
2022/12/11 05:46:40;;;;;;;4.70;1.50;;;7.20;99.90;;;;;;5060869;28;20122;-73
2022/12/11 05:49:06;;;;;;;4.00;1.20;;;7.20;99.90;;;;;;5057479;28;20036;-72
2022/12/11 05:51:33;;;;;;;3.00;1.20;;;7.30;99.90;;;;;;5057532;28;20029;-72
2022/12/11 05:53:59;;;;;;;4.15;1.10;;;7.30;99.90;;;;;;5063226;28;20438;-73
2022/12/11 05:56:29;;;;;;;3.28;1.20;;;7.40;99.90;;;;;;5073428;28;20116;-73
2022/12/11 05:58:55;;;;;;;4.25;1.42;;;7.40;99.90;;;;;;5057699;28;20049;-72
2022/12/11 06:01:24;;;;;;;3.83;1.33;;;7.50;99.90;;;;;;5059950;28;20041;-72
2022/12/11 06:03:51;;;;;;;4.28;1.42;;;7.50;99.90;;;;;;5071136;28;20036;-72
2022/12/11 06:06:17;;;;;;;4.13;1.60;;;7.50;99.90;;;;;;5054103;28;20496;-72
2022/12/11 06:08:43;;;;;;;4.65;1.38;;;7.50;99.90;;;;;;5060808;28;20043;-72
2022/12/11 06:11:11;;;;;;;3.13;1.20;;;7.50;99.90;;;;;;5032913;28;20041;-72
2022/12/11 06:13:37;;;;;;;3.58;1.25;;;7.50;99.90;;;;;;5060101;28;20082;-71
2022/12/11 06:16:05;;;;;;;4.50;1.33;;;7.50;99.90;;;;;;5054876;28;20040;-72
2022/12/11 06:18:35;;;;;;;2.90;1.20;;;7.50;99.90;;;;;;5059392;28;20075;-72
2022/12/11 06:21:01;;;;;;;6.57;1.90;;;7.60;99.90;;;;;;5076753;28;20484;-72
2022/12/11 06:23:26;;;;;;;8.52;3.22;;;7.60;99.90;;;;;;5069682;28;20041;-72
2022/12/11 06:25:52;;;;;;;6.72;1.95;;;7.60;99.90;;;;;;5062698;28;20492;-72
2022/12/11 06:28:19;;;;;;;3.60;1.30;;;7.70;99.90;;;;;;5031787;28;20040;-72
2022/12/11 06:30:45;;;;;;;4.70;1.25;;;7.70;99.90;;;;;;5059779;28;20372;-72
2022/12/11 06:33:11;;;;;;;4.05;1.38;;;7.70;99.90;;;;;;5058903;28;20036;-72
2022/12/11 06:35:36;;;;;;;5.95;1.50;;;7.70;99.90;;;;;;5059455;28;20032;-72
2022/12/11 06:38:02;;;;;;;3.47;1.38;;;7.70;99.90;;;;;;5053332;28;20045;-72
2022/12/11 06:40:28;;;;;;;6.30;1.48;;;7.70;99.90;;;;;;5049087;28;20048;-72
2022/12/11 06:42:54;;;;;;;5.28;1.70;;;7.70;99.90;;;;;;5038930;28;20060;-73
2022/12/11 06:45:20;;;;;;;4.65;1.67;;;7.80;99.90;;;;;;5049031;28;20139;-72
2022/12/11 06:47:45;;;;;;;4.35;1.40;;;7.80;99.90;;;;;;5018745;28;20037;-72
2022/12/11 06:50:11;;;;;;;5.18;2.40;;;7.80;99.90;;;;;;5030958;28;20068;-72
2022/12/11 06:52:37;;;;;;;4.93;1.85;;;7.80;99.90;;;;;;5037446;28;20048;-73
2022/12/11 06:55:03;;;;;;;4.57;1.52;;;7.80;99.90;;;;;;5040574;28;20042;-73
2022/12/11 06:57:29;;;;;;;3.60;1.40;;;7.70;99.90;;;;;;5037192;28;20181;-72
2022/12/11 06:59:56;;;;;;;4.05;1.30;;;7.70;99.90;;;;;;5038031;28;20120;-73
2022/12/11 07:02:22;;;;;;;3.75;1.20;;;7.70;99.90;;;;;;5052706;28;20128;-72
2022/12/11 07:04:49;;;;;;;3.55;1.27;;;7.70;99.90;;;;;;5061800;28;20496;-72
2022/12/11 07:07:15;;;;;;;;;;;7.70;99.90;;;;;;5061216;28;20029;-72
2022/12/11 07:09:41;;;;;;;3.63;1.35;;;7.70;99.90;;;;;;5055332;28;19919;-73
2022/12/11 07:12:07;;;;;;;5.03;2.17;;;7.80;99.90;;;;;;5057744;28;20037;-72
2022/12/11 07:14:33;;;;;;;4.57;1.40;;;7.80;99.90;;;;;;5058505;28;20040;-72
2022/12/11 07:16:59;;;;;;;3.55;1.40;;;7.80;99.90;;;;;;5045132;28;20191;-72
2022/12/11 07:19:25;;;;;;;3.97;1.40;;;7.80;99.90;;;;;;5058362;28;20111;-71
2022/12/11 07:21:51;;;;;;;3.95;1.52;;;7.90;99.90;;;;;;5060688;28;20452;-71
2022/12/11 07:24:18;;;;;;;3.63;1.30;;;7.90;99.90;;;;;;5057644;28;20090;-72
2022/12/11 07:26:44;;;;;;;2.70;1.38;;;7.90;99.90;;;;;;5059471;28;20041;-73
2022/12/11 07:29:10;;;;;;;8.20;2.25;;;7.90;99.90;;;;;;5058350;28;20045;-73
2022/12/11 07:31:36;;;;;;;4.72;1.50;;;8.00;99.90;;;;;;5058997;28;20033;-72
2022/12/11 07:34:04;;;;;;;3.22;1.30;;;8.00;99.90;;;;;;5040434;28;20538;-73
2022/12/11 07:36:31;;;;;;;3.50;1.48;;;8.10;99.90;;;;;;5070005;28;20025;-73
2022/12/11 07:38:58;;;;;;;3.33;1.30;;;8.10;99.90;;;;;;5061564;28;20041;-73
2022/12/11 07:41:26;;;;;;;;;;;8.10;99.90;;;;;;5057294;28;20375;-72
2022/12/11 07:43:52;;;;;;;4.70;1.98;;;8.20;99.90;;;;;;5054461;28;19991;-72
2022/12/11 07:46:21;;;;;;;4.18;1.23;;;8.30;99.90;;;;;;5054211;28;20733;-72
2022/12/11 07:48:48;;;;;;;5.65;1.75;;;8.40;99.90;;;;;;5056903;28;20024;-73
2022/12/11 07:51:27;;;;;;;4.93;1.70;;;8.40;99.90;;;;;;5056405;28;20516;-73
2022/12/11 07:53:59;;;;;;;4.88;1.80;;;8.50;99.90;;;;;;5061791;28;20171;-73
2022/12/11 07:56:27;;;;;;;4.95;1.50;;;8.60;99.90;;;;;;5053239;28;20033;-73
2022/12/11 07:58:53;;;;;;;3.58;1.38;;;8.70;99.90;;;;;;5058598;28;20542;-73
2022/12/11 08:01:25;;;;;;;6.63;1.60;;;8.80;99.90;;;;;;5056227;28;20048;-72
2022/12/11 08:03:52;;;;;;;4.50;1.70;;;8.80;99.90;;;;;;5060824;28;20024;-76
2022/12/11 08:06:20;;;;;;;7.28;1.80;;;8.80;99.90;;;;;;5055853;28;20539;-73
2022/12/11 08:08:46;;;;;;;5.15;2.25;;;8.80;99.90;;;;;;5053186;28;20053;-72
2022/12/11 08:11:14;;;;;;;4.13;1.75;;;8.80;99.90;;;;;;5048499;28;20037;-73
2022/12/11 08:13:41;;;;;;;4.03;1.90;;;8.90;99.90;;;;;;5056578;28;20033;-73
2022/12/11 08:16:12;;;;;;;3.45;1.60;;;9.00;99.90;;;;;;5056253;28;20041;-73
2022/12/11 08:18:38;;;;;;;4.70;2.10;;;9.10;99.90;;;;;;5059200;28;20029;-73
2022/12/11 08:21:11;;;;;;;4.82;1.70;;;9.00;99.90;;;;;;5056303;28;20042;-74
2022/12/11 08:23:37;;;;;;;3.55;1.70;;;9.00;99.90;;;;;;5059791;28;20116;-73
2022/12/11 08:26:04;;;;;;;5.22;1.67;;;9.00;99.90;;;;;;5051545;28;20110;-72
2022/12/11 08:28:30;;;;;;;;;;;9.00;99.90;;;;;;5053722;28;20043;-73
2022/12/11 08:30:57;;;;;;;4.15;1.33;;;8.90;99.90;;;;;;5059418;28;20004;-72
2022/12/11 08:33:23;;;;;;;4.40;1.33;;;8.90;99.90;;;;;;5034126;28;20037;-73
2022/12/11 08:35:49;;;;;;;4.25;1.48;;;8.90;99.90;;;;;;5058442;28;20036;-72
2022/12/11 08:38:14;;;;;;;4.10;1.60;;;9.00;99.90;;;;;;5056135;28;20484;-74
2022/12/11 08:40:40;;;;;;;3.90;1.45;;;9.00;99.90;;;;;;5058288;28;20036;-73
2022/12/11 08:43:06;;;;;;;4.68;1.50;;;9.20;99.90;;;;;;5054592;28;20052;-73
2022/12/11 08:45:32;;;;;;;3.40;1.30;;;9.30;99.90;;;;;;5054551;28;20033;-72
2022/12/11 08:47:59;;;;;;;7.43;1.65;;;9.40;99.90;;;;;;5052797;28;20049;-71
2022/12/11 08:50:24;;;;;;;4.28;1.65;;;9.50;99.90;;;;;;5055832;28;20068;-72
2022/12/11 08:52:55;;;;;;;4.40;1.15;;;9.60;99.90;;;;;;5055784;28;20467;-72
2022/12/11 08:55:21;;;;;;;4.60;1.65;;;9.70;99.90;;;;;;5052384;28;20041;-72
2022/12/11 08:57:47;;;;;;;4.05;1.40;;;9.70;99.90;;;;;;5052310;28;20039;-73
2022/12/11 09:00:14;;;;;;;4.75;1.38;;;9.80;99.90;;;;;;5062611;28;20524;-73
2022/12/11 09:02:39;;;;;;;;;;;9.80;99.90;;;;;;5041281;28;20041;-72
2022/12/11 09:05:08;;;;;;;2.50;1.00;;;9.80;99.90;;;;;;5054530;28;20372;-73
2022/12/11 09:07:34;;;;;;;4.63;1.30;;;9.80;99.90;;;;;;5058028;28;20032;-73
2022/12/11 09:10:00;;;;;;;4.60;1.20;;;9.80;99.90;;;;;;5056343;28;20041;-73
2022/12/11 09:12:27;;;;;;;3.92;1.20;;;9.80;99.50;;;;;;5061428;28;20033;-73
2022/12/11 09:14:53;;;;;;;3.13;1.23;;;9.80;99.30;;;;;;5063846;28;20037;-73
2022/12/11 09:17:19;;;;;;;3.72;1.38;;;9.80;99.20;;;;;;5056713;28;20037;-72
2022/12/11 09:19:46;;;;;;;4.00;1.42;;;9.80;98.90;;;;;;5042887;28;20033;-73
2022/12/11 09:22:12;;;;;;;3.92;1.63;;;9.80;99.10;;;;;;5061694;28;20045;-73
2022/12/11 09:24:38;;;;;;;4.80;1.50;;;9.80;99.10;;;;;;5059252;28;20042;-72
2022/12/11 09:27:05;;;;;;;5.25;1.55;;;9.90;99.20;;;;;;5052490;28;20032;-72
2022/12/11 09:29:31;;;;;;;4.45;1.92;;;10.00;99.10;;;;;;5059301;28;20037;-73
2022/12/11 09:31:57;;;;;;;2.50;1.20;;;10.10;99.20;;;;;;5072780;28;20500;-74
2022/12/11 09:34:23;;;;;;;3.05;0.98;;;10.20;99.00;;;;;;5059955;28;20091;-74
2022/12/11 09:36:49;;;;;;;3.83;1.38;;;10.30;99.10;;;;;;5059318;28;20487;-73
2022/12/11 09:39:16;;;;;;;3.08;1.40;;;10.40;99.00;;;;;;5055620;28;20057;-73
2022/12/11 09:42:06;;;;;;;4.45;1.30;;;10.40;98.90;;;;;;5056995;28;20041;-74
2022/12/11 09:44:51;;;;;;;4.13;0.95;;;10.40;99.00;;;;;;5040561;28;20034;-73
2022/12/11 09:47:20;;;;;;;4.80;1.35;;;10.30;99.10;;;;;;5038845;28;20025;-74
2022/12/11 09:49:48;;;;;;;3.08;1.10;;;10.20;99.30;;;;;;5014733;28;20028;-73
2022/12/11 09:52:32;;;;;;;4.00;1.65;;;10.20;99.50;;;;;;5036344;28;20044;-72
2022/12/11 09:55:12;;;;;;;2.90;1.17;;;10.10;99.90;;;;;;5040291;28;20044;-73
2022/12/11 09:57:49;;;;;;;3.03;1.23;;;10.10;99.90;;;;;;5053724;28;20044;-73
2022/12/11 10:00:47;;;;;;;4.47;1.42;;;10.10;99.90;;;;;;5055860;28;20041;-73
2022/12/11 10:03:37;;;;;;;5.05;1.20;;;10.10;99.90;;;;;;5073936;28;20041;-73
2022/12/11 10:06:42;;;;;;;5.05;1.58;;;10.10;99.90;;;;;;5056901;28;20068;-73
2022/12/11 10:09:40;;;;;;;3.58;1.60;;;10.00;99.90;;;;;;5056078;28;20524;-72
2022/12/11 10:12:34;;;;;;;5.35;1.67;;;10.10;99.90;;;;;;5055606;28;20029;-73
2022/12/11 10:15:28;;;;;;;5.22;1.50;;;9.90;99.90;;;;;;5053696;28;20029;-72
2022/12/11 10:17:57;;;;;;;7.13;2.20;;;9.90;99.90;;;;;;5040160;28;20083;-73
2022/12/11 10:20:38;;;;;;;5.40;2.15;;;9.90;99.90;;;;;;5032868;28;20080;-72
2022/12/11 10:23:07;;;;;;;3.35;1.35;;;10.00;99.90;;;;;;5038423;28;20077;-72
2022/12/11 10:25:47;;;;;;;5.95;1.50;;;10.00;99.90;;;;;;5033770;28;20051;-73
2022/12/11 10:28:17;;;;;;;3.97;1.52;;;10.10;99.90;;;;;;5035606;28;20045;-76
2022/12/11 10:30:54;;;;;;;4.78;1.45;;;10.20;99.90;;;;;;5042135;28;20049;-74
2022/12/11 10:33:58;;;;;;;4.28;1.45;;;10.30;99.90;;;;;;5034270;28;20175;-74
2022/12/11 10:36:34;;;;;;;3.85;1.65;;;10.50;99.90;;;;;;5050142;28;20064;-74
2022/12/11 10:39:00;;;;;;;3.05;1.20;;;10.60;99.90;;;;;;5055850;28;20037;-73
2022/12/11 10:41:36;;;;;;;3.03;1.55;;;10.60;99.90;;;;;;5052744;28;20043;-73
2022/12/11 10:44:31;;;;;;;4.78;1.42;;;10.80;99.90;;;;;;5052081;28;20029;-74
2022/12/11 10:47:17;;;;;;;4.18;1.70;;;11.10;99.90;;;;;;5054552;28;20029;-73
2022/12/11 10:49:55;;;;;;;3.65;1.40;;;11.30;99.90;;;;;;5053434;28;20051;-72
2022/12/11 10:52:41;;;;;;;3.38;1.45;;;11.80;99.90;;;;;;5058770;28;20040;-74
2022/12/11 10:55:18;;;;;;;3.83;1.40;;;11.80;99.90;;;;;;5069042;28;20041;-73
2022/12/11 10:57:45;;;;;;;3.95;1.30;;;11.80;99.90;;;;;;5070468;28;20037;-73
2022/12/11 11:00:29;;;;;;;;;;;11.70;99.90;;;;;;5055252;28;21343;-72
2022/12/11 11:02:55;;;;;;;4.40;1.63;;;11.70;99.90;;;;;;5051876;28;19921;-73
2022/12/11 11:05:33;;;;;;;3.55;1.40;;;11.60;99.90;;;;;;5054140;28;20037;-74
2022/12/11 11:08:21;;;;;;;4.10;1.70;;;11.70;99.90;;;;;;5056428;28;20059;-75
2022/12/11 11:10:55;;;;;;;5.03;2.03;;;11.70;99.90;;;;;;5059114;28;20097;-73
2022/12/11 11:13:23;;;;;;;3.97;1.25;;;11.70;99.90;;;;;;5056200;28;20197;-76
2022/12/11 11:16:05;;;;;;;4.47;1.58;;;11.70;99.90;;;;;;5050918;28;20040;-74
2022/12/11 11:18:32;;;;;;;3.80;1.40;;;11.70;99.90;;;;;;5044789;28;20068;-73
2022/12/11 11:20:59;;;;;;;8.32;2.25;;;11.60;99.90;;;;;;5054637;28;20037;-74
2022/12/11 11:23:26;;;;;;;6.88;1.67;;;11.60;99.90;;;;;;5054001;28;20048;-73
2022/12/11 11:26:06;;;;;;;5.43;1.90;;;11.50;99.90;;;;;;5060395;28;20034;-73
2022/12/11 11:28:55;;;;;;;3.92;1.60;;;11.50;99.90;;;;;;5058249;28;20074;-74
2022/12/11 11:31:31;;;;;;;10.10;2.03;;;11.50;99.90;;;;;;5054687;28;20040;-73
2022/12/11 11:34:06;;;;;;;4.20;1.45;;;11.70;99.90;;;;;;5054166;28;20492;-73
2022/12/11 11:36:35;;;;;;;4.55;1.75;;;11.80;99.90;;;;;;5050049;28;20093;-73
2022/12/11 11:39:30;;;;;;;3.65;1.65;;;11.90;99.90;;;;;;5065444;28;20055;-73
2022/12/11 11:42:29;;;;;;;5.53;2.05;;;12.10;99.90;;;;;;5053710;28;20045;-73
2022/12/11 11:45:09;;;;;;;5.75;2.20;;;12.30;99.90;;;;;;5004078;28;20584;-72
2022/12/11 11:48:23;;;;;;;7.30;1.83;;;12.30;99.90;;;;;;5055566;28;20027;-72
2022/12/11 11:50:50;;;;;;;4.35;1.90;;;12.30;99.90;;;;;;5036305;28;20039;-73
2022/12/11 11:53:39;;;;;;;6.88;2.05;;;12.20;99.90;;;;;;5039060;28;20024;-73
2022/12/11 11:56:25;;;;;;;4.80;2.00;;;12.20;99.90;;;;;;5034319;28;20032;-73
2022/12/11 11:59:20;;;;;;;4.13;1.90;;;12.30;99.90;;;;;;5037645;28;20037;-73
2022/12/11 12:01:46;;;;;;;4.40;1.80;;;12.40;99.90;;;;;;5049629;28;20077;-71
2022/12/11 12:04:13;;;;;;;4.70;1.90;;;12.50;99.90;;;;;;5049099;28;20083;-73
2022/12/11 12:07:04;;;;;;;5.97;2.08;;;12.40;99.90;;;;;;5060537;28;20025;-72
2022/12/11 12:09:50;;;;;;;4.45;2.20;;;12.30;99.90;;;;;;5036576;28;20021;-72
2022/12/11 12:12:28;;;;;;;4.93;2.00;;;12.40;99.90;;;;;;5032490;28;20033;-73
2022/12/11 12:15:12;;;;;;;5.47;2.20;;;12.90;99.90;;;;;;5033278;28;20567;-72
2022/12/11 12:17:55;;;;;;;5.50;2.30;;;13.30;99.90;;;;;;5038164;28;20056;-74
2022/12/11 12:20:37;;;;;;;5.78;2.13;;;13.40;99.90;;;;;;5043057;28;20477;-74
2022/12/11 12:23:30;;;;;;;6.22;3.15;;;13.60;99.90;;;;;;5031128;28;20063;-74
2022/12/11 12:26:03;;;;;;;7.90;2.80;;;13.40;99.90;;;;;;5038143;28;20485;-73
2022/12/11 12:29:02;;;;;;;4.88;2.30;;;13.20;99.90;;;;;;5054801;28;20138;-74
2022/12/11 12:31:27;;;;;;;6.88;1.98;;;12.80;99.90;;;;;;5035377;28;20040;-73
2022/12/11 12:34:21;;;;;;;5.75;1.90;;;12.40;99.90;;;;;;5032090;28;20041;-74
2022/12/11 12:37:25;;;;;;;5.72;1.77;;;12.20;99.90;;;;;;5056830;28;20110;-73
2022/12/11 12:40:12;;;;;;;3.85;2.30;;;12.20;99.90;;;;;;5041503;28;20030;-74
2022/12/11 12:43:05;;;;;;;4.05;2.17;;;12.50;99.90;;;;;;5055486;28;20125;-72
2022/12/11 12:45:44;;;;;;;4.25;1.80;;;12.60;99.90;;;;;;5052414;28;20123;-75
2022/12/11 12:48:10;;;;;;;4.28;2.28;;;12.00;99.70;;;;;;5066659;28;20037;-73
2022/12/11 12:50:41;;;;;;;5.22;2.25;;;12.10;99.90;;;;;;5056410;28;20047;-73
2022/12/11 12:53:12;;;;;;;4.95;2.03;;;12.30;99.90;;;;;;5051894;28;20029;-74
2022/12/11 12:55:38;;;;;;;5.18;2.10;;;12.20;99.90;;;;;;5056946;28;20088;-73
2022/12/11 12:58:06;;;;;;;4.95;2.10;;;11.90;99.30;;;;;;5062126;28;20045;-73
2022/12/11 13:00:36;;;;;;;6.55;2.20;;;11.60;99.90;;;;;;5053075;28;20114;-72
2022/12/11 13:03:14;;;;;;;4.57;1.92;;;11.50;99.90;;;;;;5053415;28;20127;-73
2022/12/11 13:05:43;;;;;;;4.68;1.70;;;11.30;99.80;;;;;;5052612;28;20098;-73
2022/12/11 13:08:10;;;;;;;5.70;1.60;;;11.40;99.90;;;;;;5058924;28;20037;-73
2022/12/11 13:10:40;;;;;;;5.43;2.15;;;11.10;99.60;;;;;;5048596;28;20115;-74
2022/12/11 13:13:31;;;;;;;4.00;1.60;;;11.50;99.90;;;;;;5048771;28;20079;-73
2022/12/11 13:16:15;;;;;;;6.20;2.33;;;11.90;99.90;;;;;;5038930;28;20102;-73
2022/12/11 13:18:47;;;;;;;7.50;2.03;;;12.30;99.00;;;;;;5048087;28;20496;-73
2022/12/11 13:21:42;;;;;;;5.03;2.40;;;12.00;99.10;;;;;;5017714;28;20038;-74
2022/12/11 13:24:20;;;;;;;6.88;2.10;;;12.00;98.90;;;;;;5021523;28;20408;-73
2022/12/11 13:26:49;;;;;;;4.53;1.80;;;11.90;99.70;;;;;;5028447;28;20037;-74